createdAt,value
2022-10-11T00:00:32.683Z,66.96
2022-10-11T00:01:07.400Z,66.76
2022-10-11T00:01:39.612Z,66.87
2022-10-11T00:02:11.781Z,66.73
2022-10-11T00:02:46.498Z,67.16
2022-10-11T00:03:18.710Z,67.15
2022-10-11T00:03:50.780Z,66.72
2022-10-11T00:04:28.063Z,67.22
2022-10-11T00:05:00.228Z,67.10
2022-10-11T00:05:32.523Z,67.07
2022-10-11T00:06:08.014Z,66.92
2022-10-11T00:06:43.383Z,66.88
2022-10-11T00:07:15.457Z,66.48
2022-10-11T00:07:50.095Z,66.82
2022-10-11T00:08:22.408Z,66.86
2022-10-11T00:08:54.483Z,66.78
2022-10-11T00:09:29.206Z,66.52
2022-10-11T00:10:01.338Z,66.52
2022-10-11T00:10:33.858Z,66.93
2022-10-11T00:11:10.063Z,66.56
2022-10-11T00:11:42.966Z,66.35
2022-10-11T00:12:15.047Z,66.72
2022-10-11T00:12:52.394Z,66.39
2022-10-11T00:13:24.479Z,66.29
2022-10-11T00:13:56.606Z,66.37
2022-10-11T00:14:28.797Z,66.51
2022-10-11T00:15:03.537Z,66.08
2022-10-11T00:15:35.731Z,66.60
2022-10-11T00:16:09.876Z,66.45
2022-10-11T00:16:45.288Z,66.42
2022-10-11T00:17:17.403Z,66.17
2022-10-11T00:17:49.824Z,66.26
2022-10-11T00:18:25.002Z,66.91
2022-10-11T00:18:57.112Z,66.61
2022-10-11T00:19:32.338Z,66.48
2022-10-11T00:20:07.862Z,66.75
2022-10-11T00:20:39.991Z,66.42
2022-10-11T00:21:14.642Z,66.73
2022-10-11T00:21:50.005Z,66.74
2022-10-11T00:22:22.187Z,67.08
2022-10-11T00:22:54.241Z,67.08
2022-10-11T00:23:28.935Z,66.63
2022-10-11T00:24:01.019Z,66.72
2022-10-11T00:24:35.735Z,66.88
2022-10-11T00:25:10.175Z,66.75
2022-10-11T00:25:42.367Z,67.06
2022-10-11T00:26:17.843Z,66.79
2022-10-11T00:26:49.947Z,66.85
2022-10-11T00:27:22.055Z,67.00
2022-10-11T00:27:57.331Z,66.77
2022-10-11T00:28:29.920Z,67.05
2022-10-11T00:29:02.085Z,66.64
2022-10-11T00:29:36.750Z,66.82
2022-10-11T00:30:10.126Z,66.79
2022-10-11T00:30:43.439Z,67.02
2022-10-11T00:31:18.583Z,66.99
2022-10-11T00:31:50.724Z,66.88
2022-10-11T00:32:22.873Z,67.09
2022-10-11T00:32:57.518Z,67.15
2022-10-11T00:33:29.593Z,67.31
2022-10-11T00:34:01.935Z,67.13
2022-10-11T00:34:36.618Z,66.92
2022-10-11T00:35:12.374Z,66.97
2022-10-11T00:35:44.717Z,67.07
2022-10-11T00:36:17.619Z,67.11
2022-10-11T00:36:52.266Z,66.83
2022-10-11T00:37:24.346Z,67.05
2022-10-11T00:37:57.182Z,67.31
2022-10-11T00:38:31.672Z,67.04
2022-10-11T00:39:06.914Z,66.87
2022-10-11T00:39:39.126Z,67.25
2022-10-11T00:40:17.628Z,66.86
2022-10-11T00:40:52.331Z,67.20
2022-10-11T00:41:24.389Z,67.29
2022-10-11T00:41:56.793Z,67.17
2022-10-11T00:42:31.451Z,67.23
2022-10-11T00:43:03.892Z,67.33
2022-10-11T00:43:36.869Z,67.44
2022-10-11T00:44:17.068Z,67.41
2022-10-11T00:44:51.017Z,67.45
2022-10-11T00:45:58.839Z,67.43
2022-10-11T00:46:35.272Z,67.61
2022-10-11T00:47:10.797Z,67.55
2022-10-11T00:47:42.898Z,67.87
2022-10-11T00:48:19.015Z,67.77
2022-10-11T00:48:58.704Z,67.85
2022-10-11T00:49:37.211Z,68.09
2022-10-11T00:50:11.130Z,67.83
2022-10-11T00:50:46.033Z,67.83
2022-10-11T00:51:21.385Z,68.02
2022-10-11T00:51:57.498Z,67.92
2022-10-11T00:52:35.684Z,68.02
2022-10-11T00:53:11.468Z,68.11
2022-10-11T00:53:44.253Z,68.26
2022-10-11T00:54:21.803Z,68.38
2022-10-11T00:54:54.026Z,68.12
2022-10-11T00:55:29.601Z,68.16
2022-10-11T00:56:09.684Z,68.61
2022-10-11T00:56:44.178Z,68.32
2022-10-11T00:57:20.293Z,68.31
2022-10-11T00:57:56.357Z,68.25
2022-10-11T00:58:28.766Z,68.43
2022-10-11T00:59:04.424Z,68.48
2022-10-11T00:59:42.708Z,68.61
2022-10-11T01:00:16.459Z,68.82
2022-10-11T01:00:48.690Z,68.38
2022-10-11T01:01:23.580Z,68.65
2022-10-11T01:01:56.034Z,68.88
2022-10-11T01:02:30.938Z,69.02
2022-10-11T01:03:04.948Z,68.91
2022-10-11T01:03:38.943Z,68.98
2022-10-11T01:04:13.696Z,69.04
2022-10-11T01:04:57.322Z,69.27
2022-10-11T01:05:40.064Z,69.13
2022-10-11T01:06:14.738Z,68.70
2022-10-11T01:06:47.807Z,69.09
2022-10-11T01:07:23.939Z,68.82
2022-10-11T01:07:56.336Z,68.92
2022-10-11T01:08:28.601Z,68.71
2022-10-11T01:09:03.281Z,68.65
2022-10-11T01:09:35.540Z,68.59
2022-10-11T01:10:08.441Z,68.69
2022-10-11T01:10:40.590Z,68.68
2022-10-11T01:11:17.584Z,68.34
2022-10-11T01:11:53.046Z,68.79
2022-10-11T01:12:32.033Z,68.23
2022-10-11T01:13:12.665Z,68.52
2022-10-11T01:13:54.866Z,68.34
2022-10-11T01:14:45.717Z,68.40
2022-10-11T01:15:25.786Z,68.43
2022-10-11T01:16:05.971Z,68.45
2022-10-11T01:16:46.854Z,68.57
2022-10-11T01:17:25.427Z,68.56
2022-10-11T01:18:04.314Z,68.12
2022-10-11T01:18:51.793Z,68.33
2022-10-11T01:19:44.714Z,68.35
2022-10-11T01:20:45.854Z,68.46
2022-10-11T01:21:31.471Z,68.03
2022-10-11T01:22:21.689Z,67.95
2022-10-11T01:23:24.324Z,68.36
2022-10-11T01:24:32.986Z,68.38
2022-10-11T01:25:19.619Z,67.96
2022-10-11T01:26:18.624Z,67.85
2022-10-11T01:27:18.886Z,67.91
2022-10-11T01:28:20.879Z,68.07
2022-10-11T01:29:04.014Z,68.06
2022-10-11T01:29:49.578Z,68.14
2022-10-11T01:30:28.681Z,68.03
2022-10-11T01:31:07.134Z,68.26
2022-10-11T01:31:46.795Z,67.76
2022-10-11T01:32:25.946Z,67.88
2022-10-11T01:33:13.307Z,68.14
2022-10-11T01:33:54.721Z,68.05
2022-10-11T01:34:34.708Z,68.16
2022-10-11T01:35:10.807Z,68.28
2022-10-11T01:35:52.403Z,68.30
2022-10-11T01:36:32.075Z,68.26
2022-10-11T01:37:13.885Z,68.64
2022-10-11T01:37:51.710Z,68.92
2022-10-11T01:38:28.098Z,68.87
2022-10-11T01:39:07.799Z,68.99
2022-10-11T01:39:46.549Z,69.52
2022-10-11T01:40:25.020Z,69.27
2022-10-11T01:41:03.077Z,69.32
2022-10-11T01:41:38.744Z,69.61
2022-10-11T01:42:13.364Z,69.38
2022-10-11T01:42:48.633Z,69.25
2022-10-11T01:43:22.965Z,69.39
2022-10-11T01:43:59.121Z,70.01
2022-10-11T01:44:34.931Z,69.86
2022-10-11T01:45:13.249Z,69.59
2022-10-11T01:45:52.647Z,69.76
2022-10-11T01:46:25.250Z,69.74
2022-10-11T01:46:57.408Z,69.94
2022-10-11T01:47:32.070Z,70.13
2022-10-11T01:48:06.712Z,70.54
2022-10-11T01:48:48.374Z,70.60
2022-10-11T01:49:23.602Z,70.64
2022-10-11T01:49:57.407Z,70.74
2022-10-11T01:50:41.729Z,70.66
2022-10-11T01:51:16.922Z,71.04
2022-10-11T01:51:53.156Z,71.08
2022-10-11T01:52:27.314Z,71.12
2022-10-11T01:53:10.484Z,71.29
2022-10-11T01:54:05.281Z,70.70
2022-10-11T01:55:50.822Z,70.83
2022-10-11T01:56:36.786Z,70.66
2022-10-11T01:57:44.034Z,70.73
2022-10-11T01:58:29.832Z,71.10
2022-10-11T01:59:15.934Z,71.16
2022-10-11T02:00:03.511Z,70.99
2022-10-11T02:00:51.858Z,70.66
2022-10-11T02:01:31.059Z,70.55
2022-10-11T02:02:18.575Z,70.89
2022-10-11T02:03:05.409Z,71.04
2022-10-11T02:03:48.423Z,70.95
2022-10-11T02:04:30.026Z,71.00
2022-10-11T02:05:12.263Z,71.01
2022-10-11T02:05:49.980Z,70.72
2022-10-11T02:06:32.509Z,70.50
2022-10-11T02:07:14.118Z,70.90
2022-10-11T02:07:53.149Z,70.47
2022-10-11T02:08:32.122Z,70.74
2022-10-11T02:09:15.210Z,70.77
2022-10-11T02:09:52.931Z,70.57
2022-10-11T02:10:33.433Z,71.13
2022-10-11T02:11:10.127Z,71.17
2022-10-11T02:11:42.920Z,71.20
2022-10-11T02:12:26.292Z,71.17
2022-10-11T02:13:04.306Z,71.35
2022-10-11T02:13:44.053Z,71.54
2022-10-11T02:14:20.760Z,71.51
2022-10-11T02:14:54.339Z,71.49
2022-10-11T02:15:32.402Z,72.25
2022-10-11T02:16:12.827Z,71.84
2022-10-11T02:16:46.475Z,71.83
2022-10-11T02:17:26.055Z,72.00
2022-10-11T02:18:02.504Z,71.60
2022-10-11T02:18:40.098Z,71.97
2022-10-11T02:19:19.795Z,71.84
2022-10-11T02:19:54.709Z,71.98
2022-10-11T02:20:30.690Z,71.83
2022-10-11T02:21:08.783Z,71.88
2022-10-11T02:21:44.656Z,72.31
2022-10-11T02:22:23.030Z,72.07
2022-10-11T02:23:02.561Z,72.10
2022-10-11T02:23:40.934Z,72.15
2022-10-11T02:24:17.437Z,72.19
2022-10-11T02:24:56.501Z,71.92
2022-10-11T02:25:33.390Z,71.80
2022-10-11T02:26:09.865Z,71.79
2022-10-11T02:26:47.481Z,71.78
2022-10-11T02:27:23.395Z,71.81
2022-10-11T02:28:02.371Z,71.93
2022-10-11T02:28:37.472Z,71.93
2022-10-11T02:29:15.206Z,72.25
2022-10-11T02:29:52.738Z,71.91
2022-10-11T02:30:25.085Z,72.13
2022-10-11T02:31:00.475Z,71.89
2022-10-11T02:31:39.220Z,71.93
2022-10-11T02:32:12.706Z,72.25
2022-10-11T02:32:47.797Z,71.91
2022-10-11T02:33:29.517Z,72.05
2022-10-11T02:34:09.949Z,71.85
2022-10-11T02:34:45.277Z,72.45
2022-10-11T02:35:20.606Z,72.10
2022-10-11T02:35:59.184Z,72.02
2022-10-11T02:36:41.956Z,72.33
2022-10-11T02:37:22.106Z,71.91
2022-10-11T02:37:59.262Z,71.84
2022-10-11T02:38:37.679Z,72.00
2022-10-11T02:39:18.121Z,72.28
2022-10-11T02:39:53.958Z,72.15
2022-10-11T02:40:31.378Z,72.08
2022-10-11T02:41:12.306Z,72.06
2022-10-11T02:41:46.815Z,72.05
2022-10-11T02:42:23.968Z,72.04
2022-10-11T02:43:03.787Z,72.14
2022-10-11T02:43:41.670Z,71.91
2022-10-11T02:44:20.149Z,71.89
2022-10-11T02:45:01.270Z,71.81
2022-10-11T02:45:37.980Z,72.08
2022-10-11T02:46:11.367Z,71.78
2022-10-11T02:46:50.239Z,71.74
2022-10-11T02:47:22.558Z,72.01
2022-10-11T02:47:55.263Z,71.69
2022-10-11T02:48:31.119Z,72.05
2022-10-11T02:49:04.138Z,71.93
2022-10-11T02:49:37.029Z,72.06
2022-10-11T02:50:13.523Z,72.25
2022-10-11T02:50:45.871Z,72.45
2022-10-11T02:51:18.747Z,72.38
2022-10-11T02:51:53.414Z,72.21
2022-10-11T02:52:25.791Z,72.43
2022-10-11T02:52:57.871Z,72.36
2022-10-11T02:53:32.910Z,72.19
2022-10-11T02:54:05.453Z,72.25
2022-10-11T02:54:37.581Z,72.73
2022-10-11T02:55:14.264Z,72.72
2022-10-11T02:55:47.892Z,72.59
2022-10-11T02:56:19.995Z,72.74
2022-10-11T02:56:54.962Z,72.74
2022-10-11T02:57:27.122Z,72.20
2022-10-11T02:58:00.302Z,72.43
2022-10-11T02:58:34.953Z,72.64
2022-10-11T02:59:07.036Z,72.53
2022-10-11T02:59:39.118Z,72.63
2022-10-11T03:00:15.581Z,72.34
2022-10-11T03:00:48.050Z,72.50
2022-10-11T03:01:20.265Z,72.79
2022-10-11T03:01:57.733Z,72.80
2022-10-11T03:02:29.850Z,72.90
2022-10-11T03:03:01.936Z,72.84
2022-10-11T03:03:36.578Z,72.77
2022-10-11T03:04:08.686Z,72.84
2022-10-11T03:04:40.766Z,73.14
2022-10-11T03:05:15.414Z,73.07
2022-10-11T03:05:47.551Z,73.24
2022-10-11T03:06:19.679Z,73.11
2022-10-11T03:06:54.339Z,73.04
2022-10-11T03:07:26.610Z,73.18
2022-10-11T03:07:58.700Z,72.92
2022-10-11T03:08:33.455Z,73.06
2022-10-11T03:09:05.643Z,73.36
2022-10-11T03:09:37.714Z,72.95
2022-10-11T03:10:13.165Z,72.95
2022-10-11T03:10:45.336Z,73.02
2022-10-11T03:11:17.443Z,72.99
2022-10-11T03:11:49.638Z,72.76
2022-10-11T03:12:24.540Z,72.74
2022-10-11T03:12:56.785Z,73.04
2022-10-11T03:13:28.946Z,73.09
2022-10-11T03:14:03.635Z,72.82
2022-10-11T03:14:35.700Z,73.20
2022-10-11T03:15:08.503Z,72.97
2022-10-11T03:15:43.143Z,73.10
2022-10-11T03:16:15.417Z,73.30
2022-10-11T03:16:47.668Z,72.90
2022-10-11T03:17:35.985Z,73.00
2022-10-11T03:18:08.994Z,73.22
2022-10-11T03:18:41.075Z,73.03
2022-10-11T03:19:19.179Z,73.13
2022-10-11T03:19:51.620Z,72.95
2022-10-11T03:20:24.408Z,72.98
2022-10-11T03:20:56.516Z,72.54
2022-10-11T03:21:31.225Z,73.05
2022-10-11T03:22:03.339Z,72.38
2022-10-11T03:22:35.626Z,72.69
2022-10-11T03:23:10.333Z,72.48
2022-10-11T03:23:42.708Z,72.85
2022-10-11T03:24:14.812Z,72.42
2022-10-11T03:24:46.916Z,72.36
2022-10-11T03:25:21.590Z,72.21
2022-10-11T03:25:53.729Z,72.28
2022-10-11T03:26:25.851Z,72.39
2022-10-11T03:26:57.946Z,72.62
2022-10-11T03:27:32.615Z,72.53
2022-10-11T03:28:05.355Z,72.33
2022-10-11T03:28:37.486Z,72.78
2022-10-11T03:29:12.208Z,72.50
2022-10-11T03:29:44.295Z,72.96
2022-10-11T03:30:18.285Z,72.95
2022-10-11T03:30:54.644Z,72.74
2022-10-11T03:31:26.959Z,72.98
2022-10-11T03:31:59.370Z,72.44
2022-10-11T03:32:34.039Z,72.74
2022-10-11T03:33:08.730Z,73.04
2022-10-11T03:33:40.863Z,72.62
2022-10-11T03:34:13.063Z,72.77
2022-10-11T03:34:47.731Z,72.81
2022-10-11T03:35:19.934Z,72.93
2022-10-11T03:35:52.041Z,73.14
2022-10-11T03:36:26.702Z,72.66
2022-10-11T03:36:58.844Z,72.87
2022-10-11T03:37:30.947Z,73.05
2022-10-11T03:38:06.000Z,72.85
2022-10-11T03:38:39.106Z,73.02
2022-10-11T03:39:11.254Z,72.73
2022-10-11T03:39:45.981Z,72.90
2022-10-11T03:40:18.203Z,72.30
2022-10-11T03:40:50.310Z,72.48
2022-10-11T03:41:25.094Z,72.21
2022-10-11T03:41:57.235Z,72.28
2022-10-11T03:42:29.818Z,72.06
2022-10-11T03:43:02.065Z,72.55
2022-10-11T03:43:37.378Z,72.20
2022-10-11T03:44:09.460Z,72.16
2022-10-11T03:44:42.290Z,72.35
2022-10-11T03:45:17.029Z,72.20
2022-10-11T03:45:49.109Z,72.00
2022-10-11T03:46:21.402Z,72.21
2022-10-11T03:46:56.166Z,72.40
2022-10-11T03:47:28.251Z,72.23
2022-10-11T03:48:03.178Z,72.11
2022-10-11T03:48:37.882Z,72.16
2022-10-11T03:49:09.979Z,72.11
2022-10-11T03:49:43.778Z,71.81
2022-10-11T03:50:18.683Z,71.92
2022-10-11T03:50:50.794Z,71.95
2022-10-11T03:51:22.899Z,72.28
2022-10-11T03:51:57.596Z,72.06
2022-10-11T03:52:29.758Z,71.74
2022-10-11T03:53:01.889Z,71.87
2022-10-11T03:53:36.671Z,72.03
2022-10-11T03:54:08.743Z,71.90
2022-10-11T03:54:40.819Z,72.08
2022-10-11T03:55:15.548Z,71.76
2022-10-11T03:55:53.183Z,71.74
2022-10-11T03:56:25.249Z,72.03
2022-10-11T03:56:59.958Z,72.17
2022-10-11T03:57:32.115Z,72.12
2022-10-11T03:58:04.187Z,72.08
2022-10-11T03:58:38.886Z,72.13
2022-10-11T03:59:10.958Z,72.73
2022-10-11T03:59:43.087Z,72.48
2022-10-11T04:00:18.153Z,72.83
2022-10-11T04:00:50.652Z,72.87
2022-10-11T04:01:25.398Z,72.96
2022-10-11T04:01:57.527Z,72.59
2022-10-11T04:02:29.693Z,73.04
2022-10-11T04:03:07.085Z,72.83
2022-10-11T04:03:39.194Z,72.92
2022-10-11T04:04:11.261Z,72.79
2022-10-11T04:04:46.195Z,73.10
2022-10-11T04:05:18.566Z,73.21
2022-10-11T04:05:50.649Z,72.81
2022-10-11T04:06:25.446Z,72.76
2022-10-11T04:06:57.559Z,72.53
2022-10-11T04:07:29.761Z,72.57
2022-10-11T04:08:07.374Z,72.62
2022-10-11T04:08:43.262Z,72.20
2022-10-11T04:09:15.505Z,72.41
2022-10-11T04:09:50.211Z,72.45
2022-10-11T04:10:22.647Z,72.44
2022-10-11T04:10:54.770Z,71.85
2022-10-11T04:11:29.738Z,71.81
2022-10-11T04:12:02.023Z,71.87
2022-10-11T04:12:34.838Z,72.10
2022-10-11T04:13:09.630Z,71.82
2022-10-11T04:13:41.888Z,71.70
2022-10-11T04:14:13.970Z,72.00
2022-10-11T04:14:48.676Z,71.95
2022-10-11T04:15:20.815Z,71.55
2022-10-11T04:15:52.944Z,71.70
2022-10-11T04:16:27.689Z,71.54
2022-10-11T04:17:00.575Z,71.56
2022-10-11T04:17:32.838Z,71.42
2022-10-11T04:18:11.126Z,71.33
2022-10-11T04:18:43.194Z,71.55
2022-10-11T04:19:15.307Z,71.74
2022-10-11T04:19:49.971Z,71.45
2022-10-11T04:20:22.100Z,71.25
2022-10-11T04:20:54.246Z,71.47
2022-10-11T04:21:28.955Z,71.28
2022-10-11T04:22:01.042Z,71.54
2022-10-11T04:22:33.586Z,71.89
2022-10-11T04:23:08.320Z,71.56
2022-10-11T04:23:40.384Z,72.03
2022-10-11T04:24:12.873Z,72.09
2022-10-11T04:24:47.522Z,72.18
2022-10-11T04:25:19.638Z,72.41
2022-10-11T04:25:51.810Z,72.44
2022-10-11T04:26:27.659Z,72.88
2022-10-11T04:27:00.119Z,72.72
2022-10-11T04:27:32.344Z,72.92
2022-10-11T04:28:08.141Z,72.44
2022-10-11T04:28:40.324Z,72.41
2022-10-11T04:29:12.479Z,72.97
2022-10-11T04:29:47.152Z,72.94
2022-10-11T04:30:19.502Z,72.61
2022-10-11T04:30:51.614Z,72.82
2022-10-11T04:31:26.511Z,72.85
2022-10-11T04:31:58.644Z,73.02
2022-10-11T04:32:30.782Z,73.18
2022-10-11T04:33:05.416Z,72.97
2022-10-11T04:33:40.078Z,73.14
2022-10-11T04:34:12.270Z,73.42
2022-10-11T04:34:47.097Z,73.09
2022-10-11T04:35:19.231Z,73.05
2022-10-11T04:35:54.374Z,73.18
2022-10-11T04:36:29.066Z,73.33
2022-10-11T04:37:01.219Z,73.22
2022-10-11T04:37:33.449Z,73.01
2022-10-11T04:38:08.167Z,73.23
2022-10-11T04:38:40.244Z,73.16
2022-10-11T04:39:13.085Z,73.66
2022-10-11T04:39:47.749Z,73.42
2022-10-11T04:40:19.868Z,73.77
2022-10-11T04:40:51.980Z,73.87
2022-10-11T04:41:26.640Z,74.07
2022-10-11T04:41:58.805Z,74.08
2022-10-11T04:42:30.905Z,74.44
2022-10-11T04:43:05.558Z,74.62
2022-10-11T04:43:38.194Z,74.43
2022-10-11T04:44:10.270Z,74.22
2022-10-11T04:44:44.913Z,74.13
2022-10-11T04:45:17.447Z,74.30
2022-10-11T04:45:52.318Z,74.18
2022-10-11T04:46:30.308Z,74.18
2022-10-11T04:47:02.398Z,74.50
2022-10-11T04:47:34.522Z,74.11
2022-10-11T04:48:09.626Z,74.13
2022-10-11T04:48:44.742Z,74.13
2022-10-11T04:49:16.849Z,74.18
2022-10-11T04:49:51.501Z,74.12
2022-10-11T04:50:23.606Z,73.96
2022-10-11T04:50:55.815Z,74.03
2022-10-11T04:51:31.193Z,74.31
2022-10-11T04:52:03.356Z,74.16
2022-10-11T04:52:35.506Z,74.17
2022-10-11T04:53:10.981Z,73.94
2022-10-11T04:53:43.270Z,73.72
2022-10-11T04:54:15.794Z,73.63
2022-10-11T04:54:50.527Z,73.75
2022-10-11T04:55:22.590Z,73.62
2022-10-11T04:56:01.080Z,73.66
2022-10-11T04:56:36.105Z,73.17
2022-10-11T04:57:08.218Z,73.45
2022-10-11T04:57:42.960Z,73.25
2022-10-11T04:58:15.022Z,73.27
2022-10-11T04:58:48.310Z,73.11
2022-10-11T04:59:23.051Z,73.17
2022-10-11T04:59:55.114Z,73.01
2022-10-11T05:00:29.763Z,72.88
2022-10-11T05:01:01.893Z,72.78
2022-10-11T05:01:34.059Z,72.80
2022-10-11T05:02:08.782Z,72.74
2022-10-11T05:02:40.963Z,72.78
2022-10-11T05:03:13.060Z,72.53
2022-10-11T05:03:50.584Z,72.27
2022-10-11T05:04:22.774Z,72.49
2022-10-11T05:04:55.032Z,72.54
2022-10-11T05:05:29.829Z,72.59
2022-10-11T05:06:05.600Z,72.66
2022-10-11T05:06:38.175Z,72.96
2022-10-11T05:07:12.846Z,72.49
2022-10-11T05:07:44.906Z,72.74
2022-10-11T05:08:17.034Z,72.69
2022-10-11T05:08:51.663Z,72.71
2022-10-11T05:09:24.154Z,72.97
2022-10-11T05:09:56.319Z,72.59
2022-10-11T05:10:31.017Z,72.75
2022-10-11T05:11:05.830Z,73.07
2022-10-11T05:11:40.475Z,73.43
2022-10-11T05:12:12.610Z,72.94
2022-10-11T05:12:44.728Z,73.39
2022-10-11T05:13:19.374Z,73.25
2022-10-11T05:13:51.480Z,73.13
2022-10-11T05:14:26.217Z,72.97
2022-10-11T05:14:59.654Z,73.18
2022-10-11T05:15:31.751Z,73.06
2022-10-11T05:16:10.804Z,72.66
2022-10-11T05:16:43.738Z,72.83
2022-10-11T05:17:15.818Z,72.82
2022-10-11T05:17:50.507Z,72.67
2022-10-11T05:18:23.099Z,72.90
2022-10-11T05:18:57.959Z,72.83
2022-10-11T05:19:32.738Z,72.60
2022-10-11T05:20:05.974Z,72.81
2022-10-11T05:20:38.059Z,72.62
2022-10-11T05:21:21.145Z,72.86
2022-10-11T05:21:55.118Z,73.05
2022-10-11T05:22:27.191Z,72.83
2022-10-11T05:23:01.838Z,72.91
2022-10-11T05:23:35.975Z,72.57
2022-10-11T05:24:08.357Z,72.57
2022-10-11T05:24:43.040Z,72.99
2022-10-11T05:25:15.291Z,72.82
2022-10-11T05:25:47.457Z,72.59
2022-10-11T05:26:23.060Z,72.60
2022-10-11T05:26:56.330Z,72.64
2022-10-11T05:27:30.768Z,72.99
2022-10-11T05:28:05.497Z,72.98
2022-10-11T05:28:37.951Z,72.71
2022-10-11T05:29:10.053Z,72.55
2022-10-11T05:29:45.867Z,72.97
2022-10-11T05:30:18.096Z,72.57
2022-10-11T05:30:50.231Z,72.67
2022-10-11T05:31:24.969Z,72.49
2022-10-11T05:31:57.170Z,72.54
2022-10-11T05:32:29.363Z,72.35
2022-10-11T05:33:04.147Z,72.81
2022-10-11T05:33:36.432Z,72.58
2022-10-11T05:34:13.689Z,72.68
2022-10-11T05:34:45.918Z,72.34
2022-10-11T05:35:18.219Z,72.38
2022-10-11T05:35:53.042Z,72.48
2022-10-11T05:36:25.122Z,72.33
2022-10-11T05:36:57.545Z,72.27
2022-10-11T05:37:32.597Z,72.40
2022-10-11T05:38:04.762Z,72.29
2022-10-11T05:38:37.489Z,72.58
2022-10-11T05:39:12.171Z,72.50
2022-10-11T05:39:44.257Z,72.39
2022-10-11T05:40:16.467Z,72.67
2022-10-11T05:40:52.226Z,72.57
2022-10-11T05:41:24.314Z,72.49
2022-10-11T05:41:57.002Z,72.77
2022-10-11T05:42:31.677Z,72.84
2022-10-11T05:43:04.141Z,72.80
2022-10-11T05:43:36.238Z,72.70
2022-10-11T05:44:11.257Z,72.95
2022-10-11T05:44:43.337Z,72.85
2022-10-11T05:45:15.579Z,72.58
2022-10-11T05:45:50.299Z,72.92
2022-10-11T05:46:22.486Z,73.12
2022-10-11T05:46:54.583Z,72.99
2022-10-11T05:47:29.307Z,72.93
2022-10-11T05:48:01.381Z,72.94
2022-10-11T05:48:33.750Z,72.79
2022-10-11T05:49:08.450Z,73.02
2022-10-11T05:49:43.206Z,72.91
2022-10-11T05:50:15.569Z,72.78
2022-10-11T05:50:50.341Z,72.74
2022-10-11T05:51:22.546Z,72.78
2022-10-11T05:51:54.759Z,72.94
2022-10-11T05:52:29.643Z,73.12
2022-10-11T05:53:02.106Z,73.20
2022-10-11T05:53:34.271Z,73.26
2022-10-11T05:54:09.019Z,73.32
2022-10-11T05:54:41.140Z,72.92
2022-10-11T05:55:13.524Z,72.81
2022-10-11T05:55:48.466Z,72.83
2022-10-11T05:56:22.631Z,72.78
2022-10-11T05:56:54.701Z,73.27
2022-10-11T05:57:29.501Z,72.82
2022-10-11T05:58:01.610Z,73.08
2022-10-11T05:58:35.647Z,73.19
2022-10-11T05:59:10.321Z,73.02
2022-10-11T05:59:42.688Z,73.15
2022-10-11T06:00:15.683Z,72.97
2022-10-11T06:00:50.505Z,72.79
2022-10-11T06:01:24.432Z,72.87
2022-10-11T06:01:56.658Z,72.87
2022-10-11T06:02:31.381Z,72.92
2022-10-11T06:03:03.788Z,72.79
2022-10-11T06:03:35.865Z,73.06
2022-10-11T06:04:11.873Z,73.06
2022-10-11T06:04:46.738Z,72.97
2022-10-11T06:05:18.951Z,72.92
2022-10-11T06:05:57.024Z,72.79
2022-10-11T06:06:29.521Z,72.82
2022-10-11T06:07:01.747Z,73.08
2022-10-11T06:07:38.794Z,73.29
2022-10-11T06:08:11.277Z,73.21
2022-10-11T06:08:43.766Z,73.07
2022-10-11T06:09:18.460Z,72.98
2022-10-11T06:09:51.706Z,72.89
2022-10-11T06:10:23.979Z,72.94
2022-10-11T06:10:58.638Z,73.13
2022-10-11T06:11:30.740Z,73.41
2022-10-11T06:12:03.588Z,73.24
2022-10-11T06:12:38.871Z,73.43
2022-10-11T06:13:11.067Z,73.49
2022-10-11T06:13:44.575Z,73.36
2022-10-11T06:14:19.272Z,73.26
2022-10-11T06:14:51.357Z,73.06
2022-10-11T06:15:23.568Z,73.06
2022-10-11T06:15:58.465Z,73.10
2022-10-11T06:16:30.556Z,72.91
2022-10-11T06:17:05.212Z,73.25
2022-10-11T06:17:37.397Z,72.98
2022-10-11T06:18:09.474Z,73.03
2022-10-11T06:18:44.354Z,73.34
2022-10-11T06:19:16.482Z,73.31
2022-10-11T06:19:51.688Z,73.24
2022-10-11T06:20:26.489Z,73.34
2022-10-11T06:20:58.759Z,73.56
2022-10-11T06:21:31.339Z,73.52
2022-10-11T06:22:06.234Z,73.24
2022-10-11T06:22:39.187Z,73.34
2022-10-11T06:23:11.281Z,73.09
2022-10-11T06:23:46.030Z,73.30
2022-10-11T06:24:18.159Z,73.37
2022-10-11T06:24:50.290Z,73.21
2022-10-11T06:25:24.947Z,73.78
2022-10-11T06:25:58.220Z,73.60
2022-10-11T06:26:30.804Z,73.32
2022-10-11T06:27:05.510Z,73.60
2022-10-11T06:27:37.637Z,73.43
2022-10-11T06:28:09.776Z,73.43
2022-10-11T06:28:44.571Z,73.44
2022-10-11T06:29:16.686Z,73.41
2022-10-11T06:29:49.213Z,73.52
2022-10-11T06:30:24.382Z,73.33
2022-10-11T06:30:56.849Z,73.53
2022-10-11T06:31:31.571Z,73.52
2022-10-11T06:32:03.915Z,73.58
2022-10-11T06:32:36.081Z,73.80
2022-10-11T06:33:10.834Z,73.59
2022-10-11T06:33:42.991Z,73.35
2022-10-11T06:34:18.215Z,73.73
2022-10-11T06:34:52.943Z,73.64
2022-10-11T06:35:25.196Z,73.45
2022-10-11T06:36:01.063Z,73.22
2022-10-11T06:36:33.230Z,73.54
2022-10-11T06:37:05.310Z,73.74
2022-10-11T06:37:39.985Z,73.42
2022-10-11T06:38:12.208Z,73.58
2022-10-11T06:38:45.557Z,73.23
2022-10-11T06:39:20.311Z,73.22
2022-10-11T06:39:52.370Z,73.65
2022-10-11T06:40:24.758Z,73.19
2022-10-11T06:40:59.399Z,73.17
2022-10-11T06:41:31.500Z,73.13
2022-10-11T06:42:03.840Z,73.38
2022-10-11T06:42:38.574Z,73.13
2022-10-11T06:43:10.664Z,73.34
2022-10-11T06:43:42.836Z,73.59
2022-10-11T06:44:17.898Z,73.32
2022-10-11T06:44:49.975Z,73.28
2022-10-11T06:45:22.098Z,73.19
2022-10-11T06:46:02.029Z,73.28
2022-10-11T06:46:34.254Z,73.06
2022-10-11T06:47:07.171Z,73.21
2022-10-11T06:47:41.890Z,73.22
2022-10-11T06:48:14.417Z,73.53
2022-10-11T06:48:47.754Z,73.31
2022-10-11T06:49:23.602Z,73.67
2022-10-11T06:49:58.405Z,73.38
2022-10-11T06:50:54.765Z,73.22
2022-10-11T06:51:27.307Z,73.74
2022-10-11T06:51:59.506Z,73.54
2022-10-11T06:52:34.146Z,73.51
2022-10-11T06:53:07.197Z,73.29
2022-10-11T06:53:40.298Z,73.27
2022-10-11T06:54:17.354Z,73.55
2022-10-11T06:54:49.444Z,73.42
2022-10-11T06:55:21.517Z,73.29
2022-10-11T06:55:56.158Z,73.63
2022-10-11T06:56:30.555Z,73.31
2022-10-11T06:57:05.247Z,73.49
2022-10-11T06:57:37.433Z,73.37
2022-10-11T06:58:12.638Z,73.32
2022-10-11T06:58:44.795Z,73.40
2022-10-11T06:59:16.966Z,73.56
2022-10-11T06:59:51.619Z,73.37
2022-10-11T07:00:23.727Z,73.31
2022-10-11T07:00:59.776Z,73.29
2022-10-11T07:01:34.595Z,73.54
2022-10-11T07:02:06.935Z,73.42
2022-10-11T07:02:39.025Z,73.51
2022-10-11T07:03:13.859Z,73.27
2022-10-11T07:03:46.111Z,73.29
2022-10-11T07:04:20.906Z,73.25
2022-10-11T07:04:53.090Z,73.18
2022-10-11T07:05:32.150Z,73.13
2022-10-11T07:06:06.801Z,73.26
2022-10-11T07:06:40.970Z,72.83
2022-10-11T07:07:16.350Z,73.12
2022-10-11T07:07:48.422Z,72.82
2022-10-11T07:08:20.526Z,72.79
2022-10-11T07:08:55.905Z,73.16
2022-10-11T07:09:28.336Z,72.70
2022-10-11T07:10:00.450Z,72.91
2022-10-11T07:10:35.098Z,72.83
2022-10-11T07:11:09.443Z,72.56
2022-10-11T07:11:44.121Z,72.73
2022-10-11T07:12:16.540Z,72.64
2022-10-11T07:12:48.718Z,72.45
2022-10-11T07:13:24.573Z,72.60
2022-10-11T07:13:58.554Z,72.45
2022-10-11T07:14:33.395Z,72.05
2022-10-11T07:15:06.387Z,72.14
2022-10-11T07:15:41.331Z,71.97
2022-10-11T07:16:13.428Z,71.80
2022-10-11T07:16:45.592Z,71.81
2022-10-11T07:17:20.908Z,71.98
2022-10-11T07:17:52.991Z,71.73
2022-10-11T07:18:25.141Z,72.14
2022-10-11T07:19:03.179Z,71.67
2022-10-11T07:19:35.495Z,71.84
2022-10-11T07:20:08.841Z,71.82
2022-10-11T07:20:46.655Z,71.80
2022-10-11T07:21:18.770Z,71.81
2022-10-11T07:21:50.865Z,71.52
2022-10-11T07:22:25.568Z,71.84
2022-10-11T07:22:58.021Z,71.57
2022-10-11T07:23:30.387Z,71.75
2022-10-11T07:24:05.444Z,71.78
2022-10-11T07:24:37.575Z,71.66
2022-10-11T07:25:10.127Z,71.39
2022-10-11T07:25:45.004Z,71.62
2022-10-11T07:26:17.217Z,71.56
2022-10-11T07:26:51.913Z,71.49
2022-10-11T07:27:24.137Z,71.31
2022-10-11T07:27:56.261Z,71.65
2022-10-11T07:28:31.635Z,71.70
2022-10-11T07:29:04.016Z,71.38
2022-10-11T07:29:38.767Z,71.25
2022-10-11T07:30:11.883Z,71.56
2022-10-11T07:30:44.264Z,71.36
2022-10-11T07:31:21.797Z,71.29